CheckWX is a tool to help pilots better visualize weather data.  It is not intended as a substitute for an official pre-flight weather briefing.

11:59:28 UTC

CYYF METAR
Penticton Airport
Penticton, Canada
Current

59 mins ago

CYYF 261100Z 36005KT 15SM BKN120 08/01 A2996 RMK AC7 SLP153
Observed
Apr-26 @ 11:00 UTC
Wind
  • 360° at 5 KTS
Visibility
15 SM
Flight Rules
VFR
Cloud Levels
  • Broken at 12,000' AGL
Temperature
C / 46°F
Dewpoint
C / 34°F
Humidity
62%
Altimeter
29.96" Hg
Pressure
1014.52 hPa
Previous

2 hours ago

CYYF 261000Z 34006KT 15SM BKN110 08/01 A2996 RMK AC7 SLP152
Observed
Apr-26 @ 10:00 UTC
Wind
  • 340° at 6 KTS
Visibility
15 SM
Flight Rules
VFR
Cloud Levels
  • Broken at 11,000' AGL
Temperature
C / 46°F
Dewpoint
C / 34°F
Humidity
62%
Altimeter
29.96" Hg
Pressure
1014.52 hPa
Previous

3 hours ago

CYYF 260900Z 36006KT 15SM OVC100 09/01 A2996 RMK AC8 SLP153
Observed
Apr-26 @ 09:00 UTC
Wind
  • 360° at 6 KTS
Visibility
15 SM
Flight Rules
VFR
Cloud Levels
  • Overcast at 10,000' AGL
Temperature
C / 48°F
Dewpoint
C / 34°F
Humidity
58%
Altimeter
29.96" Hg
Pressure
1014.52 hPa